ルレオ の空港の天気 - METARとTAF

Lulea / Kallax ( ESPA / LLA ) - スウェーデン ルレオ
飛行場実況気象(Metar)
観測時間10/20 06:20 CEST (10/20 04:20 UTC)
風向・風速北北西 4m/s
視程10km以上
天気現象
なし
気温-5℃
湿度86%
気圧1019hPa
METARESPA 200420Z AUTO 34008KT 9999 NCD M05/M07 Q1019
過去の天気等 Google飛行場航空写真 Wunderground天気予報

過去48時間のMETAR

飛行場予報(TAF)
発表時間: 10/19 16:30 CEST (10/19 14:30 UTC)
予報対象時間: 19日17時 CEST ~ 19日21時 CEST
風向・風速北 5m/s
視程10km以上
全天の8割程度の雲 雲底高度 490m
19日17時 CEST ~ 19日18時 CEST に一時的に
全天を覆う雲 雲底高度 430m
TAF ESPA 191430Z 1915/1919 01010KT 9999 BKN016
TEMPO 1915/1916 OVC014